KFQDKPOB

Guest
Details From KFQD - RUTHERFORD CO MARCHMAN FIELD
To KPOB - Pope AFB
Flight Number -
Tags generated
Created
Modified
Stats Distance 144 nm / 267 km
Max Altitude 8,100 ft / 2,469 m
Waypoints 3
Social Downloads 0
Likes 0
Share VATSIM

Download

Looking for another format? Having issues loading an existing format? Contact us
Advertisement - Login to hide

Notes

Basic altitude profile: - Ascent Rate: 2500ft/min - Ascent Speed: 240kts - Cruise Altitude: 35000ft - Cruise Speed: 420kts - Descent Rate: 1500ft/min - Descent Speed: 240kts Options: - Use NATs: yes - Use PACOTS: yes - Use low airways: yes - Use high airways: yes

Route

KFQD RELPY KPOB

ID Type Via Altitude Latitude Longitude Leg Dist Tot Dist Heading (true) Name
O KFQD APT - 0 ft / 0 m 35.42806˚ -81.93500˚ - 0 nm - RUTHERFORD CO MARCHMAN FIELD
RELPY FIX - 8,100 ft / 2,469 m 35.21269˚ -79.79132˚ 105 nm 105 nm 96° / 98° -
O KPOB APT - 0 ft / 0 m 35.17063˚ -79.01428˚ 38 nm 144 nm 94° / 94° Pope AFB

Altitude Profile

Advertisement - Login to hide

KFQD

Details ICAO KFQD
Name RUTHERFORD CO MARCHMAN FIELD
Region United States
Timezone America/New_York (UTC-5.0)
Stats Elevation 1,078 ft / 329 m (AMSL)
Location 35.428055° -81.935001°
Runways 1
Magnetic Variation 7.065° W

METAR

KFQD 140540Z AUTO 20004KT 10SM CLR 02/M11 A2970 RMK AO2 T00241109

Decode

TAF

Not found

Departure Runways

ID Width Length Bearing (true) Bearing (mag) Surface Threshold Offset Overrun Length
01 100 ft / 30 m 5,010 ft / 1,527 m 14.93° 21.99° Asphalt 0 ft / 0 m 0 ft / 0 m
19 100 ft / 30 m 5,010 ft / 1,527 m 194.93° 201.99° Asphalt 0 ft / 0 m 0 ft / 0 m

KPOB

Details ICAO KPOB (POB)
Name Pope AFB
Region United States
Timezone America/New_York (UTC-5.0)
Stats Elevation 217 ft / 66 m (AMSL)
Location 35.170630° -79.014281°
Runways 2
Magnetic Variation 8.917° W

METAR

KPOB 140556Z AUTO 24007KT 10SM CLR 04/M06 A2975 RMK AO2 SLP078 T00371060 10051 20037 55008 $

Decode

TAF

TAF KPOB 140200Z 1402/1508 21010G15KT 9999 FEW080 WS020/25045KT 520108 QNH2969INS BECMG 1410/1411 22012KT 9999 SKC 520055 QNH2971INS BECMG 1414/1415 26010G15KT 9999 SKC 520005 QNH2980INS BECMG 1421/1422 29009KT 9999 SKC QNH2990INS BECMG 1501/1502 02006KT 9999 SCT030 QNH2999INS TX13/1421Z TN00/1410Z

Decode

Destination Runways

ID Width Length Bearing (true) Bearing (mag) Surface Threshold Offset Overrun Length
05 150 ft / 46 m 7,504 ft / 2,287 m 41.31° 50.23° Asphalt 0 ft / 0 m 1,000 ft / 305 m
05R 60 ft / 18 m 3,001 ft / 915 m 41.67° 50.59° Asphalt 0 ft / 0 m 0 ft / 0 m
23 150 ft / 46 m 7,504 ft / 2,287 m 221.32° 230.24° Asphalt 0 ft / 0 m 1,000 ft / 305 m
23L 60 ft / 18 m 3,001 ft / 915 m 221.68° 230.60° Asphalt 0 ft / 0 m 0 ft / 0 m

Approach Navaids

Runway Type Ident Frequency Range Bearing (true) Bearing (mag) Slope Elevation
23 Localiser IPOB 110.90 MHz 18 nm / 33 km 221.31° 230.23° - 217 ft / 66 m (AMSL)
23 Glidescope IPOB 110.90 MHz 10 nm / 19 km 221.31° 230.23° 3.00° 217 ft / 66 m (AMSL)